HOURLY OBS INDEX

084

East Gippsland

COMBIENBAR AWS

Site: 084143
Alt: 640.0m
64km NE of ORBOST


  Time     Wind        Temp  DP   Baro     Rain since   Rain past  Vis(m), Cloud(base in m), Weather
  local        km/h                         9am  last   hr   10m    
Mon 08:00  SSE  6/ 13   7.7  7.0  1021.9   21.8   0.0   0.0   0.0   ----- 
Mon 08:30    S  6/ 13   7.9  7.1  1022.0   22.4   0.6   0.6   0.2   ----- 
Mon 09:00  ENE  4/  9   8.1  7.2  1022.1   22.4   0.0   0.6   0.0   ----- 
Mon 09:30    S  6/ 22   8.3  7.2  1022.1    0.0   0.0   0.0   0.0   ----- 
Mon 10:00    S  6/ 11   8.4  7.3  1022.2    0.0   0.0   0.0   0.0   ----- 
Mon 10:30    S  4/  9   8.3  7.2  1022.4    0.2   0.2   0.2   0.0   ----- 
Mon 11:00   SW  6/ 11   8.4  7.5  1022.2    0.2   0.0   0.2   0.0   ----- 
Mon 11:30    S  6/ 13   8.5  7.7  1021.9    1.8   1.6   1.6   0.2   ----- 
Mon 12:00    S  6/ 11   8.4  7.6  1021.5    2.4   0.6   2.2   0.0   ----- 
Mon 12:30  SSE  7/ 28   8.5  7.9  1021.4    4.4   2.0   2.6   0.6   ----- 
Mon 13:00   SE  4/ 19   8.5  7.7  1021.3    4.8   0.4   2.4   0.0   ----- 

GABO ISLAND LIGHTHOUSE

Site: 084016
Alt: 15.2m
14km E of MALLACOOTA


  Time     Wind        Temp  DP   Baro     Rain since   Rain past  Vis(m), Cloud(base in m), Weather
  local        km/h                         9am  last   hr   10m    
Mon 08:00  ESE 35/ 46  14.6 10.2  1021.3   36.8   0.0   0.0   0.0   ----- 
Mon 08:30  ESE 33/ 46  14.7 10.5  1021.5   36.8   0.0   0.0   0.0   ----- 
Mon 09:00  ESE 33/ 48  14.8 10.4  1021.7   36.8   0.0   0.0   0.0   ----- 
Mon 09:30  ESE 33/ 45  14.8 10.0  1021.7    0.0   0.0   0.0   0.0   ----- 
Mon 10:00  ESE 33/ 46  15.0 10.6  1021.8    0.0   0.0   0.0   0.0   ----- 
Mon 10:30  ESE 33/ 46  15.1 10.3  1021.9    0.0   0.0   0.0   0.0   ----- 
Mon 11:00  ESE 33/ 45  15.1 10.7  1021.8    0.0   0.0   0.0   0.0   ----- 
Mon 11:30  ESE 33/ 46  14.9 11.1  1021.4    0.0   0.0   0.0   0.0   ----- 
Mon 12:00  ESE 32/ 43  15.1 10.3  1021.1    0.0   0.0   0.0   0.0   ----- 
Mon 12:30  ESE 32/ 39  15.1 10.7  1020.9    0.0   0.0   0.0   0.0   ----- 
Mon 13:00  ESE 35/ 45  15.2 10.6  1020.8    0.0   0.0   0.0   0.0   ----- 

GELANTIPY

Site: 084142
Alt: 755.0m
56km NNW of ORBOST


  Time     Wind        Temp  DP   Baro     Rain since   Rain past  Vis(m), Cloud(base in m), Weather
  local        km/h                         9am  last   hr   10m    
Mon 08:00    S  9/ 17   6.6  6.2  1021.5    7.6   0.2   0.2   0.2   ----- 
Mon 08:30  SSW  9/ 15   6.7  6.4  1021.5    7.6   0.0   0.2   0.0   ----- 
Mon 09:00  SSE 11/ 20   7.0  6.3  1021.9    7.6   0.0   0.0   0.0   ----- 
Mon 09:30    S 11/ 15   7.2  6.5  1021.9    0.0   0.0   0.0   0.0   ----- 
Mon 10:00    S  9/ 19   7.4  6.5  1021.9    0.0   0.0   0.0   0.0   ----- 
Mon 10:30    S 15/ 28   7.7  6.6  1021.9    0.0   0.0   0.0   0.0   ----- 
Mon 11:00    S 17/ 28   7.6  6.7  1021.8    0.0   0.0   0.0   0.0   ----- 
Mon 11:30  SSE 17/ 28   7.7  7.0  1021.6    0.0   0.0   0.0   0.0   ----- 
Mon 12:00    S 15/ 26   7.5  6.9  1021.1    0.4   0.4   0.4   0.0   ----- 
Mon 12:30    S 13/ 24   7.7  7.1  1021.0    0.6   0.2   0.6   0.0   ----- 
Mon 13:00    S 17/ 28   8.0  7.1  1020.7    0.6   0.0   0.2   0.0   ----- 

MALLACOOTA

Site: 084084
Alt: 22.0m
5km SSW of MALLACOOTA


  Time     Wind        Temp  DP   Baro     Rain since   Rain past  Vis(m), Cloud(base in m), Weather
  local        km/h                         9am  last   hr   10m    
Mon 08:00  ESE 26/ 37  14.2 10.0  1021.6   15.6   0.0   0.0   0.0   ----- 
Mon 08:30  ESE 28/ 39  14.3  9.9  1021.7   15.6   0.0   0.0   0.0   ----- 
Mon 09:00  ESE 24/ 32  14.3 10.3  1021.9   15.6   0.0   0.0   0.0   ----- 
Mon 09:30   SE 26/ 37  14.4 10.2  1022.0    0.0   0.0   0.0   0.0   ----- 
Mon 10:00   SE 28/ 37  14.2 10.8  1022.0    0.0   0.0   0.0   0.0   ----- 
Mon 10:30   SE 28/ 39  14.4 11.0  1022.1    0.0   0.0   0.0   0.0   ----- 
Mon 11:00   SE 26/ 39  14.0 11.2  1022.0    0.0   0.0   0.0   0.0   ----- 
Mon 11:12   SE 28/ 48  13.6 11.7  1021.9    0.2   0.2  ----   0.2   ----- 
Mon 11:30   SE 26/ 35  13.8 11.1  1021.6    0.8   0.6   0.8   0.2   ----- 
Mon 12:00   SE 30/ 41  14.4 11.2  1021.4    0.8   0.0   0.8   0.0   ----- 
Mon 12:30   SE 30/ 41  14.0 11.0  1021.1    0.8   0.0   0.0   0.0   ----- 
Mon 13:00  ESE 20/ 30  14.5 11.1  1021.0    0.8   0.0   0.0   0.0   ----- 

MOUNT NOWA NOWA

Site: 084144
Alt: 350.0m
32km W of ORBOST


  Time     Wind        Temp  DP   Baro     Rain since   Rain past  Vis(m), Cloud(base in m), Weather
  local        km/h                         9am  last   hr   10m    
Mon 08:00  ESE  9/ 19   9.6  9.5  ------   10.6   0.0   0.0   0.0   ----- 
Mon 08:30    E  9/ 17   9.5  9.4  ------   10.8   0.2   0.2   0.2   ----- 
Mon 09:00   SE  6/ 15   9.4  9.3  ------   11.2   0.4   0.6   0.0   ----- 
Mon 09:30  ESE 11/ 30  10.2 10.1  ------    0.2   0.2   0.2   0.0   ----- 
Mon 10:00  ESE  7/ 19  10.1 10.0  ------    0.8   0.6   0.8   0.0   ----- 
Mon 10:30   SE 11/ 24   9.9  9.8  ------    4.4   3.6   4.2   0.0   ----- 
Mon 11:00  ESE 11/ 24  10.5 10.3  ------    4.6   0.2   3.8   0.0   ----- 
Mon 11:30   SE 13/ 24  10.7 10.5  ------    4.6   0.0   0.2   0.0   ----- 
Mon 12:00   SE 11/ 33  10.7 10.5  ------    4.6   0.0   0.0   0.0   ----- 
Mon 12:30   SE 11/ 35  10.8 10.6  ------    4.6   0.0   0.0   0.0   ----- 
Mon 13:00  ESE  9/ 28  10.9 10.7  ------    4.6   0.0   0.0   0.0   ----- 

ORBOST

Site: 084145
Alt: 62.7m
1km NNE of ORBOST


  Time     Wind        Temp  DP   Baro     Rain since   Rain past  Vis(m), Cloud(base in m), Weather
  local        km/h                         9am  last   hr   10m    
Mon 08:00   SE  2/  6  10.2 10.1  1022.8    9.6   0.2   1.2   0.0   ----- 
Mon 08:30  NNE  2/  2  10.3 10.1  1022.8    9.6   0.0   0.2   0.0   ----- 
Mon 09:00   SE  4/  9  10.9 10.7  1023.3   11.4   1.8   1.8   0.0   ----- 
Mon 09:30  ESE  6/ 11  10.8 10.6  1023.3    0.2   0.2   0.2   0.0   ----- 
Mon 10:00  ESE  2/  6  12.3 12.0  1023.4    0.2   0.0   0.2   0.0   ----- 
Mon 10:30   SE  6/ 11  13.9 12.5  1023.4    0.2   0.0   0.0   0.0   ----- 
Mon 11:00   SE 11/ 20  14.4 11.0  1023.3    0.2   0.0   0.0   0.0   ----- 
Mon 11:30  SSE 11/ 20  14.0 12.0  1023.1    0.2   0.0   0.0   0.0   ----- 
Mon 12:00  SSE 11/ 26  13.9 12.1  1022.8    0.2   0.0   0.0   0.0   ----- 
Mon 12:30   SE 11/ 28  13.6 12.2  1022.6    0.2   0.0   0.0   0.0   ----- 
Mon 13:00   SE 13/ 32  13.4 12.1  1022.2    0.4   0.2   0.2   0.2   -----